Home > Products > Valid Products > TAF

000
FTUS43 KUNR 301001 AAC
TAFRAP
TAF AMD
KRAP 301001Z 3010/0106 01007KT P6SM OVC030
     FM301300 01014KT P6SM -SHRA OVC015
     FM301700 36018G28KT P6SM OVC025
     FM302300 02017KT P6SM BKN040 OVC080=



000
FTUS43 KUNR 301000 AAB
TAFGCC
TAF AMD
KGCC 301000Z 3010/0106 11005KT P6SM OVC035
     FM301400 05008KT P6SM -RASN BKN010 OVC025
     FM301800 06010KT P6SM BKN015 OVC035
     FM302100 04016KT P6SM BKN035
     FM010000 VRB05KT P6SM BKN090=



000
FTUS43 KUNR 300831 AAA
TAFGCC
TAF AMD
KGCC 300831Z 3009/0106 11005KT P6SM OVC030
     FM301100 05008KT P6SM -RASN BKN008 OVC015
     FM301500 06010KT P6SM BKN015 OVC035
     FM302000 04016KT P6SM BKN035
     FM010000 VRB05KT P6SM BKN090=



000
FTUS43 KUNR 300830 AAB
TAFRAP
TAF AMD
KRAP 300830Z 3009/0106 01007KT P6SM OVC020
     FM301100 01014KT P6SM -SHRA OVC012
     FM301700 36018G28KT P6SM OVC015
     FM302300 02017KT P6SM BKN040 OVC080=



000
FTUS43 KUNR 300710 AAA
TAFRAP
TAF AMD
KRAP 300710Z 3007/0106 02006KT P6SM OVC015
     FM301000 36010KT 3SM -RA OVC007
     FM301600 36018G28KT P6SM OVC015
     FM302300 02017KT P6SM OVC040
     FM010200 36009KT P6SM BKN080=



000
FTUS43 KUNR 300603 CCA
TAFGCC
TAF COR
KGCC 300603Z 3006/0106 11005KT P6SM OVC015
     FM301100 05008KT 5SM -RASN OVC008
     FM301500 06010KT P6SM BKN015 OVC035
     FM302000 04016KT P6SM BKN035
     FM010000 VRB05KT P6SM BKN090=



000
FTUS43 KUNR 300501
TAFGCC
TAF
KGCC 300501Z 3006/0106 11005KT P6SM SCT023 OVC035
      TEMPO 3006/3008 -RA OVC023
     FM300800 13007KT P6SM OVC020
     FM301000 05008KT 5SM -RA OVC012
     FM301200 03003KT 3SM -RASN OVC009
     FM301500 06010KT 5SM -RA OVC015
     FM302000 04014G24KT P6SM OVC025
     FM010000 04012KT P6SM OVC090=



000
FTUS43 KUNR 300501
TAFRAP
TAF
KRAP 300501Z 3006/0106 02006KT P6SM OVC026
     FM300800 01008KT P6SM OVC015
     FM300900 36010KT 3SM -RA OVC007
     FM301600 36018G28KT P6SM OVC015
     FM302300 02017KT P6SM OVC040
     FM010200 36009KT P6SM BKN080=



000
FTUS43 KUNR 300359 AAB
TAFRAP
TAF AMD
KRAP 300359Z 3004/3024 03006KT P6SM OVC026
     FM300600 01005KT P6SM OVC015
     FM300900 01011KT 3SM -RA BR OVC007
     FM301200 36018G28KT P6SM OVC015
     FM301900 04015KT P6SM OVC025=



000
FTUS43 KUNR 300317 AAA
TAFRAP
TAF AMD
KRAP 300317Z 3003/3024 03006KT P6SM OVC035
     FM300600 01005KT P6SM OVC015
     FM300900 01011KT 3SM -RA BR OVC007
     FM301200 36018G28KT P6SM OVC015
     FM301900 04015KT P6SM OVC025=



000
FTUS43 KUNR 292320
TAFRAP
TAF
KRAP 292320Z 3000/3024 08010KT P6SM VCSH OVC029
     FM300300 02007KT P6SM OVC009
     FM300900 01011KT 3SM -RA BR OVC007
     FM301200 36018G28KT P6SM OVC015
     FM301900 04015KT P6SM OVC025=



000
FTUS43 KUNR 292320
TAFGCC
TAF
KGCC 292320Z 3000/3024 08010KT P6SM OVC040
     FM300300 12006KT P6SM OVC015
     FM300700 06005KT P6SM OVC030
     FM300900 04007KT 3SM -RA BR OVC008
     FM301900 03013KT P6SM -SHRA OVC025=



000
FTUS43 KUNR 291720
TAFRAP
TAF
KRAP 291720Z 2918/3018 03010KT P6SM BKN015 OVC030
     FM300600 04012KT 5SM -RA BR OVC007
     FM301400 36016G26KT 5SM -RA BR OVC007=



000
FTUS43 KUNR 291720
TAFGCC
TAF
KGCC 291720Z 2918/3018 14012KT P6SM SCT020 OVC050
     FM300200 14008KT P6SM OVC010
     FM300900 04012KT 4SM -RASN BR OVC006=



000
FTUS43 KUNR 291720
TAFRAP
TAF
KRAP 291720Z 2918/3018 03010KT P6SM BKN015 OVC030
     FM300600 04012KT 5SM -RA BR OVC007
     FM301400 36016G26KT 5SM -RA BR OVC007=



000
FTUS43 KUNR 291720
TAFGCC
TAF
KGCC 291720Z 2918/3018 14012KT P6SM SCT020 OVC050
     FM300200 14008KT P6SM OVC010
     FM300900 04012KT 4SM -RASN BR OVC006=



000
FTUS43 KUNR 291557 AAA
TAFRAP
TAF AMD
KRAP 291557Z 2916/3012 11006KT P6SM OVC008
     FM291900 03010KT P6SM BKN015 OVC030
     FM300600 04012KT P6SM -SHRA OVC007=



000
FTUS43 KUNR 291120
TAFRAP
TAF
KRAP 291120Z 2912/3012 VRB05KT P6SM OVC012
     FM291700 09008KT P6SM BKN015 OVC030
     FM300600 04012KT P6SM -SHRA OVC007=



000
FTUS43 KUNR 291120
TAFGCC
TAF
KGCC 291120Z 2912/3012 VRB05KT P6SM OVC040
      TEMPO 2912/2916 P6SM BKN020 OVC040
     FM300300 16006KT P6SM OVC010=



000
FTUS43 KUNR 291120
TAFGCC
TAF
KGCC 291120Z 2912/3012 VRB05KT P6SM OVC040
      TEMPO 2912/2916 P6SM BKN020 OVC040
     FM300300 16006KT P6SM OVC010=



000
FTUS43 KUNR 291120
TAFRAP
TAF
KRAP 291120Z 2912/3012 VRB05KT P6SM OVC012
     FM291700 09008KT P6SM BKN015 OVC030
     FM300600 04012KT P6SM -SHRA OVC007=



000
FTUS43 KUNR 290920 AAB
TAFGCC
TAF AMD
KGCC 290920Z 2909/3006 VRB05KT P6SM OVC040
     FM291200 17009KT P6SM OVC020
     FM291900 13009KT P6SM OVC040
     FM300300 16006KT P6SM OVC015=



000
FTUS43 KUNR 290920 AAB
TAFGCC
TAF AMD
KGCC 290920Z 2909/3006 VRB05KT P6SM OVC040
     FM291200 17009KT P6SM OVC020
     FM291900 13009KT P6SM OVC040
     FM300300 16006KT P6SM OVC015=



000
FTUS43 KUNR 290713 AAA
TAFGCC
TAF AMD
KGCC 290713Z 2907/3006 17004KT P6SM OVC040
     FM291000 14004KT 3SM BR OVC008
     FM291300 17009KT P6SM OVC025
     FM291900 13009KT P6SM OVC040
     FM300300 16006KT P6SM OVC015=



000
FTUS43 KUNR 290712 AAA
TAFRAP
TAF AMD
KRAP 290712Z 2907/3006 35004KT P6SM BKN025 OVC040
     FM290800 03004KT P6SM BKN015 OVC030
     FM300200 07012KT P6SM OVC007=



000
FTUS43 KUNR 290520
TAFRAP
TAF
KRAP 290520Z 2906/3006 35004KT P6SM OVC025
     FM290800 03004KT 1SM -DZ BR OVC005
     FM291700 06007KT P6SM OVC015
     FM300200 07012KT P6SM OVC007=



000
FTUS43 KUNR 290520
TAFGCC
TAF
KGCC 290520Z 2906/3006 17004KT P6SM SCT006 OVC040
     FM290800 14004KT 1SM BR OVC004
     FM291300 17009KT P6SM OVC025
     FM291900 13009KT P6SM OVC040
     FM300300 16006KT P6SM OVC015=



000
FTUS43 KUNR 290439 AAA
TAFRAP
TAF AMD
KRAP 290439Z 2905/2924 32003KT P6SM SCT027 OVC035
     FM290800 03004KT 2SM BR OVC005
     FM290900 03003KT 1SM BR OVC003
     FM291700 01010KT P6SM OVC007
     FM292000 06009KT P6SM OVC012=



000
FTUS43 KUNR 282328
TAFRAP
TAF
KRAP 282328Z 2900/2924 03009KT P6SM OVC011
     FM290800 03004KT 2SM BR OVC005
     FM290900 03003KT 1SM BR OVC003
     FM291700 01010KT P6SM OVC007
     FM292000 06009KT P6SM OVC012=



000
FTUS43 KUNR 282328
TAFGCC
TAF
KGCC 282328Z 2900/2924 36005KT P6SM SCT020 OVC035
     FM290600 15005KT 4SM BR OVC007
     FM291500 16008KT P6SM OVC011
     FM291900 15010KT P6SM OVC025=



000
FTUS43 KUNR 281957 AAA
TAFGCC
TAF AMD
KGCC 281957Z 2820/2918 02010KT P6SM SCT010 BKN025
      TEMPO 2820/2824 2SM -SHSN BR BKN010
     FM290400 13008KT P6SM OVC006=



000
FTUS43 KUNR 281913 AAA
TAFRAP
TAF AMD
KRAP 281913Z 2819/2918 36010KT P6SM OVC015
     FM290300 01008KT 2SM -DZ BR OVC004
     FM290600 36006KT 1/2SM -DZ FG OVC002
     FM291600 04009KT 4SM BR OVC006=



000
FTUS43 KUNR 281720
TAFRAP
TAF
KRAP 281720Z 2818/2918 36010KT P6SM OVC007
     FM290300 01008KT 2SM -DZ BR OVC004
     FM290600 36006KT 1/2SM -DZ FG OVC002
     FM291600 04009KT 4SM BR OVC006=



000
FTUS43 KUNR 281720
TAFGCC
TAF
KGCC 281720Z 2818/2918 02010KT P6SM OVC012
     FM290400 13008KT P6SM OVC006=



000
FTUS43 KUNR 281133 CCA
TAFRAP
TAF COR
KRAP 281133Z 2812/2912 34011KT 4SM -FZDZSN BR OVC003
     FM281600 03008KT P6SM OVC009
     FM290300 01009KT 2SM -DZ BR OVC005=



000
FTUS43 KUNR 281132 CCA
TAFGCC
TAF COR
KGCC 281132Z 2812/2912 01006KT P6SM OVC005
     FM281900 05008KT P6SM OVC015
     FM290000 13006KT P6SM OVC007=



000
FTUS43 KUNR 281123
TAFRAP
TAF
KRAP 281123Z 2812/2912 34011KT 4SM -SNDZ BR OVC003
     FM281600 03008KT P6SM OVC009
     FM290300 01009KT 2SM -DZ BR OVC005=



000
FTUS43 KUNR 281123
TAFGCC
TAF
KGCC 281123Z 2812/2912 01006KT P6SM OVC007
     FM281900 05008KT P6SM OVC015
     FM290000 13006KT P6SM OVC007=



000
FTUS43 KUNR 281121 AAD
TAFRAP
TAF AMD
KRAP 281121Z 2811/2906 35012KT 4SM -SNDZ BR OVC003
     FM281600 03008KT P6SM OVC009
     FM290300 01009KT 2SM -DZ BR OVC005=



000
FTUS43 KUNR 281004 AAA
TAFGCC
TAF AMD
KGCC 281004Z 2810/2906 36007KT P6SM OVC006
     FM281900 05008KT P6SM OVC013
     FM290000 09010KT P6SM -SHRA OVC025=



000
FTUS43 KUNR 281004 AAA
TAFGCC
TAF AMD
KGCC 281004Z 2810/2906 36007KT P6SM OVC006
     FM281900 05008KT P6SM OVC013
     FM290000 09010KT P6SM -SHRA OVC025=



000
FTUS43 KUNR 280938 AAC
TAFRAP
TAF AMD
KRAP 280938Z 2810/2906 35012KT P6SM -SN OVC003
     FM281200 34008KT 1/2SM FG OVC003
     FM281600 03008KT 5SM BR OVC009
     FM290300 01009KT 2SM -SHRA BR OVC005=



000
FTUS43 KUNR 280804 AAB
TAFRAP
TAF AMD
KRAP 280804Z 2808/2906 35012KT P6SM -SN OVC004
     FM281000 34008KT 1/2SM FG OVC003
     FM281600 03008KT 5SM BR OVC009
     FM290300 01009KT 2SM -SHRA BR OVC005=



000
FTUS43 KUNR 280614 AAA
TAFRAP
TAF AMD
KRAP 280614Z 2806/2906 35012KT 6SM -SN OVC009
     FM281000 34008KT 1/2SM FG OVC003
     FM281700 03008KT 5SM BR OVC009
     FM290300 01009KT 2SM -SHRA BR OVC005=



000
FTUS43 KUNR 280614 AAA
TAFRAP
TAF AMD
KRAP 280614Z 2806/2906 35012KT 6SM -SN OVC009
     FM281000 34008KT 1/2SM FG OVC003
     FM281700 03008KT 5SM BR OVC009
     FM290300 01009KT 2SM -SHRA BR OVC005=



000
FTUS43 KUNR 280501
TAFGCC
TAF
KGCC 280501Z 2806/2906 36007KT 3SM -SN BR BKN006 OVC012
     FM281000 03006KT 1SM BR OVC004
     FM281900 05008KT P6SM OVC013
     FM290000 09010KT P6SM -SHRA OVC025=



000
FTUS43 KUNR 280501
TAFRAP
TAF
KRAP 280501Z 2806/2906 35012KT 6SM -SN OVC009
     FM280700 34009KT 2SM -SN BR OVC007
     FM281000 34008KT 1/2SM FG OVC003
     FM281700 03008KT 5SM BR OVC009
     FM290300 01009KT 2SM -SHRA BR OVC005=



000
FTUS43 KUNR 280406 AAA
TAFGCC
TAF AMD
KGCC 280406Z 2804/2824 36010KT 3SM -SN BKN007 OVC015
     FM280700 36005KT 2SM -SN BR OVC012
     FM281000 03006KT 1SM BR OVC004
     FM281600 01006KT P6SM OVC007
     FM281900 05008KT P6SM OVC013
     FM282200 03010KT P6SM OVC025=



000
FTUS43 KUNR 280404 AAB
TAFRAP
TAF AMD
KRAP 280404Z 2804/2824 35012KT 6SM -SN SCT007 OVC014
     FM280600 34010KT 1/2SM FG OVC004
     FM281400 35008KT 2SM BR OVC008
     FM282100 04011KT P6SM OVC015=



000
FTUS43 KUNR 280404 AAB
TAFRAP
TAF AMD
KRAP 280404Z 2804/2824 35012KT 6SM -SN SCT007 OVC014
     FM280600 34010KT 1/2SM FG OVC004
     FM281400 35008KT 2SM BR OVC008
     FM282100 04011KT P6SM OVC015=



000
FTUS43 KUNR 280218 AAA
TAFRAP
TAF AMD
KRAP 280218Z 2802/2824 35015KT 2SM -SN BR OVC006
     FM280500 34010KT 1/2SM FG OVC004
     FM281400 35008KT 2SM BR OVC008
     FM282100 04011KT P6SM OVC015=



000
FTUS43 KUNR 272323
TAFRAP
TAF
KRAP 272323Z 2800/2824 35013G23KT 3/4SM -SN BR BKN005 OVC012
     FM280200 35011KT 2SM -SN BR OVC007
     FM280500 34010KT 1/2SM FG OVC004
     FM281400 35008KT 2SM BR OVC008
     FM282100 04011KT P6SM OVC015=



000
FTUS43 KUNR 272323
TAFGCC
TAF
KGCC 272323Z 2800/2824 33010KT 3SM -SN SCT008 OVC013
     FM280200 36005KT 1 1/2SM -SN BR OVC007
     FM281000 03006KT 1SM BR OVC004
     FM281600 01006KT P6SM OVC007
     FM281900 05008KT P6SM OVC013
     FM282200 03010KT P6SM OVC025=



000
FTUS43 KUNR 271935 AAB
TAFGCC
TAF AMD
KGCC 271935Z 2720/2818 34010KT P6SM SCT008 SCT015 OVC035
      TEMPO 2720/2724 3SM -SN BR BKN007 OVC015
     FM280200 01005KT P6SM OVC006=



000
FTUS43 KUNR 271935 AAB
TAFGCC
TAF AMD
KGCC 271935Z 2720/2818 34010KT P6SM SCT008 SCT015 OVC035
      TEMPO 2720/2724 3SM -SN BR BKN007 OVC015
     FM280200 01005KT P6SM OVC006=



000
FTUS43 KUNR 271851 AAA
TAFRAP
TAF AMD
KRAP 271851Z 2719/2818 35018G25KT P6SM -SN SCT008 OVC015
      TEMPO 2719/2723 4SM -SN BR BKN008
     FM280200 36015KT 2SM -SN BKN008 OVC015=



000
FTUS43 KUNR 271851 AAA
TAFRAP
TAF AMD
KRAP 271851Z 2719/2818 35018G25KT P6SM -SN SCT008 OVC015
      TEMPO 2719/2723 4SM -SN BR BKN008
     FM280200 36015KT 2SM -SN BKN008 OVC015=



000
FTUS43 KUNR 271817 AAA
TAFGCC
TAF AMD
KGCC 271817Z 2718/2818 34010KT P6SM SCT008 SCT015 OVC035
      TEMPO 2718/2722 3SM -SN BR SCT008 OVC015
     FM280200 01005KT P6SM OVC006=



000
FTUS43 KUNR 271720
TAFRAP
TAF
KRAP 271720Z 2718/2818 35018G25KT 4SM -SN BR SCT006 OVC015
      TEMPO 2718/2722 2SM -SN BR BKN005
     FM280200 36015KT 2SM -SN BKN008 OVC015=



000
FTUS43 KUNR 271720
TAFGCC
TAF
KGCC 271720Z 2718/2818 34010KT P6SM SCT008 BKN015 OVC035
      TEMPO 2718/2722 3SM -SN BR BKN008 OVC015
     FM280200 01005KT P6SM OVC006=



000
FTUS43 KUNR 271720
TAFGCC
TAF
KGCC 271720Z 2718/2818 34010KT P6SM SCT008 BKN015 OVC035
      TEMPO 2718/2722 3SM -SN BR BKN008 OVC015
     FM280200 01005KT P6SM OVC006=



000
FTUS43 KUNR 271344 AAA
TAFGCC
TAF AMD
KGCC 271344Z 2714/2812 33006KT P6SM BKN005 OVC015
      TEMPO 2714/2718 2SM BR SCT005 OVC015
     FM271800 36013KT 3SM -RASN SCT008 OVC018
     FM280200 01005KT P6SM OVC006=



000
FTUS43 KUNR 271344 AAA
TAFGCC
TAF AMD
KGCC 271344Z 2714/2812 33006KT P6SM BKN005 OVC015
      TEMPO 2714/2718 2SM BR SCT005 OVC015
     FM271800 36013KT 3SM -RASN SCT008 OVC018
     FM280200 01005KT P6SM OVC006=



000
FTUS43 KUNR 271120
TAFRAP
TAF
KRAP 271120Z 2712/2812 35016KT 3SM -RA BR BKN006 OVC015
     FM271800 36018G25KT 4SM -RA BR SCT008 OVC015
     FM280200 36015KT 2SM -RASN BKN008 OVC015=



000
FTUS43 KUNR 271120
TAFGCC
TAF
KGCC 271120Z 2712/2812 33006KT P6SM BKN005 OVC015
      TEMPO 2715/2718 SCT005 OVC015
     FM271800 36013KT 3SM -RASN SCT008 OVC018
     FM280200 01005KT P6SM OVC006=



000
FTUS43 KUNR 271120
TAFRAP
TAF
KRAP 271120Z 2712/2812 35016KT 3SM -RA BR BKN006 OVC015
     FM271800 36018G25KT 4SM -RA BR SCT008 OVC015
     FM280200 36015KT 2SM -RASN BKN008 OVC015=



    US Dept of Commerce
    National Oceanic and Atmospheric Administration
    National Weather Service
    1325 East West Highway
    Silver Spring, MD 20910
    Page Author: NWS Internet Services Team
Disclaimer
Information Quality
Credits
Glossary
Privacy Policy
Freedom of Information Act (FOIA)
About Us
Career Opportunities